Cylinder, Iowa
Current Conditions -  °F | °C
As of 11:15 AM on Thursday 18 Dec 2014 (Local Time) from KAXA Reporting Station
Overcast Overcast  
Wind Chill: -10°   Ceiling: 7500
Heat Index: -6°   Visibility: 8mi
Dew Point: -7°   Wind: 6mph
Humidity: 93%   Direction: 170°S
Pressure: 30.27"   Gusts: NA
Location:  43.09°N, 94.55°W
Report Text: KAXA 181715Z AUTO 17005KT 8SM OVC075 M06/M07 A3027 RMK AO2
Loading
Personal Weather Stations






























Interactive Weather Map New forecast layout! Learn more

10-Day Weather Forecast

Advertisements
Track Severe Weather on mobile